Time;durP1;ratioP1;P1;durP2;ratioP2;P2;SDS_P1;SDS_P2;PMS_P1;PMS_P2;Temp;Humidity;BMP_temperature;BMP_pressure;BME280_temperature;BME280_humidity;BME280_pressure;Samples;Min_cycle;Max_cycle;Signal;HPM_P1;HPM_P2
2022/09/21 00:01:24;;;;;;;5.53;3.70;;;;;;;9.55;100.00;100842.42;2814303;83;21581;-83
2022/09/21 00:05:26;;;;;;;3.87;3.37;;;;;;;9.57;100.00;100841.83;2810531;83;21034;-83
2022/09/21 00:09:27;;;;;;;3.70;2.55;;;;;;;9.52;100.00;100842.64;2799039;84;21694;-83
2022/09/21 00:13:28;;;;;;;6.28;3.90;;;;;;;9.46;100.00;100855.02;2800984;83;21053;-83
2022/09/21 00:17:30;;;;;;;7.03;3.20;;;;;;;9.43;100.00;100853.87;2803795;83;21529;-83
2022/09/21 00:21:31;;;;;;;3.80;2.80;;;;;;;9.44;100.00;100850.30;2878418;80;21017;-84
2022/09/21 00:25:33;;;;;;;3.77;3.47;;;;;;;9.35;100.00;100859.73;2809505;82;21084;-83
2022/09/21 00:29:34;;;;;;;4.37;2.72;;;;;;;9.36;100.00;100852.59;2802881;83;21805;-83
2022/09/21 00:33:35;;;;;;;6.25;2.98;;;;;;;9.35;100.00;100852.23;2841252;82;21036;-81
2022/09/21 00:37:36;;;;;;;7.47;3.20;;;;;;;9.32;100.00;100854.60;2871112;80;21059;-83
2022/09/21 00:41:38;;;;;;;7.62;3.75;;;;;;;9.33;100.00;100855.47;2780042;83;21399;-83
2022/09/21 00:45:40;;;;;;;4.22;3.58;;;;;;;9.30;100.00;100859.16;2789812;84;21134;-82
2022/09/21 00:49:49;;;;;;;4.22;2.83;;;;;;;9.24;100.00;100860.45;2799913;83;21012;-83
2022/09/21 00:53:56;;;;;;;3.83;2.77;;;;;;;9.29;100.00;100866.30;2779021;83;21539;-83
2022/09/21 00:58:08;;;;;;;4.65;3.08;;;;;;;9.31;100.00;100864.84;2804690;82;21072;-83
2022/09/21 01:02:08;;;;;;;2.62;2.27;;;;;;;9.32;100.00;100869.20;2843402;82;20993;-83
2022/09/21 01:06:10;;;;;;;5.90;4.78;;;;;;;9.23;100.00;100877.80;2843131;82;20979;-83
2022/09/21 01:10:15;;;;;;;5.65;3.08;;;;;;;9.21;100.00;100877.05;2816212;82;21029;-83
2022/09/21 01:14:43;;;;;;;4.65;3.47;;;;;;;9.13;100.00;100880.22;2842950;82;21017;-83
2022/09/21 01:19:09;;;;;;;3.50;2.60;;;;;;;9.09;100.00;100882.70;2854900;81;21091;-83
2022/09/21 01:23:56;;;;;;;4.20;3.17;;;;;;;9.12;100.00;100890.45;2862184;81;21635;-82
2022/09/21 01:28:09;;;;;;;2.83;2.62;;;;;;;9.00;100.00;100891.63;2858872;81;21005;-83
2022/09/21 01:32:24;;;;;;;3.65;3.25;;;;;;;8.93;100.00;100890.80;2839998;81;21071;-83
2022/09/21 01:36:30;;;;;;;7.85;4.10;;;;;;;8.89;100.00;100891.50;2856026;81;21014;-83
2022/09/21 01:40:40;;;;;;;4.50;3.57;;;;;;;8.88;100.00;100897.76;2843923;82;21067;-83
2022/09/21 01:44:44;;;;;;;3.77;3.40;;;;;;;8.86;100.00;100904.97;2867303;81;21330;-83
2022/09/21 01:48:51;;;;;;;5.03;3.83;;;;;;;8.77;100.00;100904.22;2835470;82;21084;-83
2022/09/21 01:52:58;;;;;;;4.05;3.75;;;;;;;8.73;100.00;100905.38;2841006;82;21039;-83
2022/09/21 01:57:16;;;;;;;3.08;2.77;;;;;;;8.76;100.00;100904.71;2849436;82;21541;-83
2022/09/21 02:01:21;;;;;;;3.92;2.95;;;;;;;8.66;100.00;100904.91;2830445;81;21001;-82
2022/09/21 02:05:26;;;;;;;4.10;3.52;;;;;;;8.70;100.00;100907.73;2853395;81;21009;-83
2022/09/21 02:09:27;;;;;;;3.80;2.90;;;;;;;8.71;100.00;100912.95;2849423;82;21014;-83
2022/09/21 02:13:33;;;;;;;3.83;2.62;;;;;;;8.67;100.00;100920.74;2854520;80;21028;-83
2022/09/21 02:17:57;;;;;;;4.22;3.17;;;;;;;8.64;100.00;100918.26;2897061;80;21069;-82
2022/09/21 02:22:09;;;;;;;4.62;3.47;;;;;;;8.70;100.00;100924.98;2868483;80;21628;-83
2022/09/21 02:26:19;;;;;;;4.45;3.17;;;;;;;8.63;100.00;100911.25;2821325;82;21036;-83
2022/09/21 02:30:26;;;;;;;3.40;2.40;;;;;;;8.63;100.00;100915.72;2806573;83;21604;-83
2022/09/21 02:34:46;;;;;;;3.22;2.95;;;;;;;8.65;100.00;100919.98;2797467;83;21343;-83
2022/09/21 02:38:55;;;;;;;5.47;4.10;;;;;;;8.65;100.00;100913.82;2833805;82;21563;-82
2022/09/21 02:43:01;;;;;;;3.15;2.58;;;;;;;8.68;100.00;100914.48;2868165;81;21037;-83
2022/09/21 02:47:26;;;;;;;7.83;3.25;;;;;;;8.65;100.00;100918.66;2782099;84;21036;-83
2022/09/21 02:51:36;;;;;;;4.17;3.75;;;;;;;8.68;100.00;100921.12;2773037;83;21579;-82
2022/09/21 02:55:38;;;;;;;5.15;3.50;;;;;;;8.59;100.00;100924.34;2795934;83;21120;-83
2022/09/21 02:59:40;;;;;;;5.70;4.55;;;;;;;8.61;100.00;100929.55;2795995;83;21068;-83
2022/09/21 03:03:41;;;;;;;6.00;5.00;;;;;;;8.53;100.00;100931.36;2796384;83;21008;-82
2022/09/21 03:07:43;;;;;;;5.10;4.30;;;;;;;8.60;100.00;100934.48;2844057;82;21066;-83
2022/09/21 03:11:44;;;;;;;4.17;3.80;;;;;;;8.57;100.00;100938.17;2843699;82;21094;-83
2022/09/21 03:15:46;;;;;;;7.05;3.90;;;;;;;8.59;100.00;100940.25;2850523;82;21631;-83
2022/09/21 03:19:47;;;;;;;7.97;4.67;;;;;;;8.61;100.00;100944.98;2834523;82;21010;-83
2022/09/21 03:23:49;;;;;;;6.00;3.40;;;;;;;8.63;100.00;100943.57;2779852;85;21046;-83
2022/09/21 03:27:52;;;;;;;6.20;4.12;;;;;;;8.62;100.00;100946.68;2777922;83;21040;-82
2022/09/21 03:31:54;;;;;;;4.55;4.15;;;;;;;8.68;100.00;100948.09;2802113;84;21550;-83
2022/09/21 03:35:56;;;;;;;6.85;4.47;;;;;;;8.66;100.00;100945.56;2801205;83;21005;-83
2022/09/21 03:39:58;;;;;;;5.22;3.65;;;;;;;8.76;100.00;100955.11;2806125;83;21097;-83
2022/09/21 03:43:59;;;;;;;6.72;3.70;;;;;;;8.91;100.00;100961.69;2817431;83;21311;-83
2022/09/21 03:48:01;;;;;;;4.60;2.52;;;;;;;8.93;100.00;100969.94;2808674;83;21565;-83
2022/09/21 03:52:02;;;;;;;6.90;4.20;;;;;;;8.91;100.00;100965.67;2801945;83;21017;-83
2022/09/21 03:56:04;;;;;;;4.90;3.85;;;;;;;9.05;100.00;100962.16;2802290;85;21604;-82
2022/09/21 04:00:09;;;;;;;8.18;4.50;;;;;;;9.02;100.00;100961.00;2801491;83;21367;-83
2022/09/21 04:04:10;;;;;;;5.30;4.37;;;;;;;9.04;100.00;100965.73;2798055;83;21082;-83
2022/09/21 04:08:11;;;;;;;5.60;4.55;;;;;;;9.06;100.00;100972.66;2801987;83;21571;-83
2022/09/21 04:12:13;;;;;;;5.35;4.62;;;;;;;9.16;100.00;100970.25;2801652;83;21006;-83
2022/09/21 04:16:16;;;;;;;8.05;6.45;;;;;;;9.19;100.00;100972.70;2792208;83;21574;-82
2022/09/21 04:20:18;;;;;;;8.23;4.78;;;;;;;9.21;100.00;100969.47;2765682;84;21068;-82
2022/09/21 04:24:19;;;;;;;11.57;6.47;;;;;;;9.21;100.00;100966.81;2819289;83;21064;-82
2022/09/21 04:28:21;;;;;;;11.35;5.25;;;;;;;9.21;100.00;100971.29;2802918;83;21063;-83
2022/09/21 04:32:22;;;;;;;10.18;5.95;;;;;;;9.14;100.00;100968.17;2823385;81;21007;-83
2022/09/21 04:36:26;;;;;;;7.37;5.25;;;;;;;9.12;100.00;100970.92;2814998;82;21043;-83
2022/09/21 04:40:28;;;;;;;7.80;6.35;;;;;;;9.22;100.00;100979.13;2812707;83;21034;-83
2022/09/21 04:44:29;;;;;;;7.80;6.97;;;;;;;9.32;100.00;100984.70;2812930;83;21007;-82
2022/09/21 04:48:30;;;;;;;13.25;6.50;;;;;;;9.31;100.00;100979.50;2830859;81;21074;-83
2022/09/21 04:52:32;;;;;;;7.75;6.20;;;;;;;9.33;100.00;100985.56;2818077;83;21163;-84
2022/09/21 04:56:34;;;;;;;7.80;6.62;;;;;;;9.24;100.00;100979.05;2812661;83;21030;-84
2022/09/21 05:00:35;;;;;;;9.23;6.12;;;;;;;9.28;100.00;100980.08;2813165;83;21342;-85
2022/09/21 05:04:36;;;;;;;7.47;5.72;;;;;;;9.25;100.00;100984.27;2818346;82;20999;-84
2022/09/21 05:12:57;;;;;;;7.58;6.78;;;;;;;9.24;100.00;100993.19;2807868;84;21327;-85
2022/09/21 05:16:58;;;;;;;6.97;4.90;;;;;;;9.32;100.00;100993.98;2814281;83;21066;-85
2022/09/21 05:21:01;;;;;;;5.47;4.70;;;;;;;9.23;100.00;100999.42;2824144;83;21022;-84
2022/09/21 05:25:04;;;;;;;5.00;4.25;;;;;;;9.29;100.00;101001.70;2828027;83;21010;-84
2022/09/21 05:29:06;;;;;;;5.37;4.85;;;;;;;9.34;100.00;101009.38;2821374;83;21029;-84
2022/09/21 05:33:10;;;;;;;6.75;5.45;;;;;;;9.28;100.00;101014.59;2831493;81;21026;-84
2022/09/21 05:37:32;;;;;;;5.92;4.83;;;;;;;9.36;100.00;101019.41;2822609;82;21030;-85
2022/09/21 05:41:34;;;;;;;6.25;4.33;;;;;;;9.36;100.00;101014.10;2820702;83;21081;-85
2022/09/21 05:45:41;;;;;;;6.90;6.20;;;;;;;9.43;100.00;101017.18;2824773;80;21526;-85
2022/09/21 05:49:50;;;;;;;7.03;5.70;;;;;;;9.52;100.00;101017.92;2840403;81;21045;-84
2022/09/21 05:54:09;;;;;;;7.15;6.45;;;;;;;9.52;100.00;101007.30;2827364;83;20983;-84
2022/09/21 05:58:54;;;;;;;8.98;5.00;;;;;;;9.61;100.00;101011.61;2765883;83;21030;-84
2022/09/21 06:03:29;;;;;;;6.47;3.85;;;;;;;9.55;100.00;101019.05;2827713;83;21680;-84
2022/09/21 06:07:30;;;;;;;19.23;5.75;;;;;;;9.69;100.00;101028.75;2827868;83;21041;-84
2022/09/21 06:11:32;;;;;;;5.78;4.78;;;;;;;9.73;100.00;101022.77;2820444;83;21057;-84
2022/09/21 06:15:37;;;;;;;6.72;5.87;;;;;;;9.76;100.00;101028.36;2792501;81;21057;-85
2022/09/21 06:19:38;;;;;;;6.05;4.65;;;;;;;9.82;100.00;101016.81;2835995;83;21014;-85
2022/09/21 06:23:39;;;;;;;7.60;4.75;;;;;;;9.88;100.00;101021.38;2777396;84;21136;-85
2022/09/21 06:27:40;;;;;;;6.12;4.90;;;;;;;9.93;100.00;101018.78;2785161;83;21029;-85
2022/09/21 06:31:42;;;;;;;6.30;5.65;;;;;;;10.12;100.00;101032.99;2817423;80;21009;-86
2022/09/21 06:35:43;;;;;;;6.12;5.53;;;;;;;10.32;100.00;101034.77;2830148;82;20990;-85
2022/09/21 06:39:44;;;;;;;7.87;5.20;;;;;;;10.49;100.00;101038.09;2842347;81;21064;-85
2022/09/21 06:43:46;;;;;;;4.92;4.05;;;;;;;10.60;100.00;101035.52;2838315;82;21486;-85
2022/09/21 06:47:47;;;;;;;7.30;5.47;;;;;;;10.73;100.00;101036.87;2819215;82;21010;-84
2022/09/21 06:51:48;;;;;;;9.10;5.90;;;;;;;10.76;100.00;101042.43;2812345;83;21057;-86
2022/09/21 06:55:50;;;;;;;9.90;6.62;;;;;;;10.79;100.00;101050.19;2840201;82;21025;-87
2022/09/21 06:59:51;;;;;;;7.08;5.60;;;;;;;10.79;100.00;101044.87;2819472;82;21522;-84
2022/09/21 07:03:53;;;;;;;7.08;5.45;;;;;;;10.99;100.00;101055.44;2812384;82;20991;-86
2022/09/21 07:07:57;;;;;;;5.67;5.17;;;;;;;11.14;100.00;101053.48;2843879;81;21044;-85
2022/09/21 07:11:58;;;;;;;8.10;4.87;;;;;;;11.03;100.00;101058.75;2843051;80;21119;-84
2022/09/21 07:16:05;;;;;;;5.58;4.85;;;;;;;10.93;100.00;101064.71;2842503;82;21061;-86
2022/09/21 07:20:08;;;;;;;12.45;6.12;;;;;;;10.97;100.00;101064.02;2843004;82;21017;-85
2022/09/21 07:24:09;;;;;;;5.90;5.10;;;;;;;11.08;100.00;101072.08;2800291;82;21038;-85
2022/09/21 07:28:12;;;;;;;7.45;6.05;;;;;;;11.07;100.00;101070.87;2809693;82;21533;-83
2022/09/21 07:32:13;;;;;;;7.58;5.00;;;;;;;11.21;100.00;101077.40;2829645;82;21005;-83
2022/09/21 07:36:16;;;;;;;9.05;6.75;;;;;;;11.34;100.00;101072.49;2802268;82;21069;-84
2022/09/21 07:40:17;;;;;;;9.13;6.03;;;;;;;11.56;100.00;101078.45;2830692;82;21033;-84
2022/09/21 07:44:21;;;;;;;10.88;7.22;;;;;;;11.63;100.00;101077.02;2823830;83;21581;-85
2022/09/21 07:48:23;;;;;;;7.40;6.55;;;;;;;11.71;100.00;101073.79;2793030;82;21569;-86
2022/09/21 07:52:24;;;;;;;6.85;5.50;;;;;;;11.80;100.00;101071.79;2814372;82;21046;-86
2022/09/21 07:56:26;;;;;;;8.58;5.78;;;;;;;11.93;100.00;101073.05;2819365;82;21017;-86
2022/09/21 08:00:31;;;;;;;6.92;4.72;;;;;;;11.99;100.00;101078.41;2845204;82;21505;-84
2022/09/21 08:04:30;;;;;;;7.90;6.30;;;;;;;12.08;100.00;101081.73;2844439;82;21037;-85
2022/09/21 08:08:32;;;;;;;10.95;5.47;;;;;;;12.03;100.00;101083.91;2842126;82;20990;-85
2022/09/21 08:12:33;;;;;;;8.08;5.55;;;;;;;12.21;100.00;101084.81;2845315;82;21052;-85
2022/09/21 08:16:37;;;;;;;8.03;4.95;;;;;;;12.17;100.00;101087.32;2820822;82;21589;-85
2022/09/21 08:20:38;;;;;;;8.43;5.20;;;;;;;12.19;100.00;101082.75;2807765;82;21072;-85
2022/09/21 08:24:40;;;;;;;10.15;5.60;;;;;;;12.17;100.00;101091.32;2817469;83;21038;-85
2022/09/21 08:28:41;;;;;;;9.23;5.75;;;;;;;12.30;100.00;101085.42;2817690;83;21014;-85
2022/09/21 08:32:42;;;;;;;9.15;6.08;;;;;;;12.52;100.00;101091.77;2807512;84;20987;-86
2022/09/21 08:36:45;;;;;;;6.05;5.45;;;;;;;12.62;100.00;101089.23;2814932;82;21105;-86
2022/09/21 08:40:46;;;;;;;9.13;4.47;;;;;;;12.81;100.00;101089.50;2853689;81;21057;-85
2022/09/21 08:44:52;;;;;;;6.72;4.53;;;;;;;12.94;100.00;101089.38;2840461;82;21100;-86
2022/09/21 08:49:08;;;;;;;12.53;4.70;;;;;;;13.09;100.00;101097.14;2815705;83;21014;-85
2022/09/21 08:53:15;;;;;;;9.20;5.22;;;;;;;13.12;100.00;101094.23;2795786;83;20979;-85
2022/09/21 08:57:18;;;;;;;5.20;4.80;;;;;;;13.18;100.00;101089.75;2814481;83;21014;-84
2022/09/21 09:01:50;;;;;;;6.85;4.65;;;;;;;13.13;100.00;101092.78;2838800;81;21573;-85
2022/09/21 09:06:00;;;;;;;5.47;4.85;;;;;;;13.11;100.00;101094.73;2817771;83;21558;-85
2022/09/21 09:10:32;;;;;;;5.45;4.45;;;;;;;13.24;100.00;101090.58;2816530;82;20999;-85
2022/09/21 09:15:00;;;;;;;6.42;4.72;;;;;;;13.50;100.00;101090.81;2828885;83;21030;-85
2022/09/21 09:19:15;;;;;;;6.22;4.75;;;;;;;13.62;100.00;101093.80;2804716;82;20979;-86
2022/09/21 09:23:40;;;;;;;4.92;4.45;;;;;;;13.76;100.00;101095.84;2786288;83;21094;-85
2022/09/21 09:27:45;;;;;;;6.37;4.17;;;;;;;13.95;100.00;101097.34;2813624;83;21054;-85
2022/09/21 09:31:47;;;;;;;5.23;4.60;;;;;;;13.87;100.00;101097.62;2783394;83;21049;-85
2022/09/21 09:36:02;;;;;;;4.83;4.33;;;;;;;14.00;100.00;101106.33;2804631;84;21125;-86
2022/09/21 09:40:07;;;;;;;3.92;3.30;;;;;;;14.32;100.00;101096.05;2788627;84;21047;-85
2022/09/21 09:44:31;;;;;;;6.78;5.17;;;;;;;14.59;100.00;101087.13;2793822;83;21106;-86
2022/09/21 09:48:50;;;;;;;5.37;3.30;;;;;;;14.90;100.00;101088.02;2768298;83;21534;-85
2022/09/21 09:52:53;;;;;;;6.33;3.22;;;;;;;15.04;95.55;101088.64;2799002;83;21002;-86
2022/09/21 09:56:55;;;;;;;3.33;2.95;;;;;;;15.20;98.03;101086.30;2816563;82;21010;-86
2022/09/21 10:00:56;;;;;;;5.80;3.83;;;;;;;15.24;97.87;101085.04;2811746;83;21061;-86
2022/09/21 10:05:04;;;;;;;3.95;3.55;;;;;;;15.32;95.93;101091.53;2799932;83;21021;-86
2022/09/21 10:09:31;;;;;;;4.45;3.52;;;;;;;15.30;94.97;101086.81;2799320;82;21585;-86
2022/09/21 10:13:35;;;;;;;;;;;;;;;15.29;96.09;101076.59;2823791;82;21041;-85
2022/09/21 10:17:36;;;;;;;4.70;3.55;;;;;;;15.37;96.76;101069.21;2788244;83;20167;-85
2022/09/21 10:21:45;;;;;;;5.80;3.85;;;;;;;15.58;92.93;101070.94;2813044;82;21061;-86
2022/09/21 10:25:44;;;;;;;3.22;2.02;;;;;;;15.55;94.20;101075.59;2824139;82;21546;-85
2022/09/21 10:29:47;;;;;;;4.70;3.92;;;;;;;15.83;89.46;101073.05;2818227;82;21021;-86
2022/09/21 10:34:13;;;;;;;3.50;2.80;;;;;;;16.03;89.16;101075.77;2812082;82;21104;-84
2022/09/21 10:38:20;;;;;;;5.05;3.58;;;;;;;16.21;89.52;101069.67;2803525;82;21021;-85
2022/09/21 10:42:22;;;;;;;2.47;2.27;;;;;;;16.30;88.32;101072.83;2808932;83;21057;-86
2022/09/21 10:46:32;;;;;;;5.25;2.87;;;;;;;16.36;86.72;101070.92;2843041;82;21540;-87
2022/09/21 10:50:45;;;;;;;2.27;2.08;;;;;;;16.42;86.67;101066.82;2841580;82;21029;-87
2022/09/21 10:54:51;;;;;;;1.82;1.52;;;;;;;16.56;85.30;101056.10;2844859;82;21465;-83
2022/09/21 10:59:23;;;;;;;2.52;2.17;;;;;;;16.58;82.20;101054.11;2826882;82;21123;-85
2022/09/21 11:03:40;;;;;;;1.95;1.55;;;;;;;16.67;85.57;101046.50;2842214;82;21742;-86
2022/09/21 11:07:56;;;;;;;2.40;1.57;;;;;;;16.59;82.68;101051.77;2823919;82;21009;-86
2022/09/21 11:12:20;;;;;;;2.12;1.92;;;;;;;16.56;82.12;101046.70;2819623;82;21109;-86
2022/09/21 11:16:52;;;;;;;2.92;2.17;;;;;;;16.28;85.80;101044.80;2836157;83;21013;-86
2022/09/21 11:21:08;;;;;;;2.12;1.62;;;;;;;16.44;89.10;101039.33;2833659;82;21580;-86
2022/09/21 11:25:30;;;;;;;2.17;1.60;;;;;;;16.59;84.44;101024.92;2839788;82;21073;-86
2022/09/21 11:29:46;;;;;;;2.70;2.12;;;;;;;16.87;82.62;101021.41;2821432;82;21006;-86
2022/09/21 11:34:26;;;;;;;1.87;1.35;;;;;;;17.03;79.01;101023.47;2812656;82;21017;-86
2022/09/21 11:38:45;;;;;;;1.92;1.50;;;;;;;16.95;79.42;101021.02;2825963;83;20974;-86
2022/09/21 11:43:09;;;;;;;1.55;1.45;;;;;;;16.61;81.78;101021.59;2746000;85;21543;-86
2022/09/21 11:47:48;;;;;;;2.92;2.47;;;;;;;16.26;84.75;101023.97;2745779;85;21539;-85
2022/09/21 11:52:10;;;;;;;3.05;2.00;;;;;;;16.12;84.72;101015.88;2554505;91;21099;-85
2022/09/21 11:56:30;;;;;;;2.02;1.30;;;;;;;16.07;86.43;101009.25;2567185;90;21027;-85
2022/09/21 12:00:37;;;;;;;1.50;0.90;;;;;;;16.20;82.54;101008.42;2564719;91;21034;-86
2022/09/21 12:04:58;;;;;;;1.15;0.88;;;;;;;16.35;75.68;101006.14;2566484;91;21047;-86
2022/09/21 12:09:20;;;;;;;3.37;1.52;;;;;;;16.74;78.66;100998.41;2599034;90;21055;-87
2022/09/21 12:13:36;;;;;;;1.35;1.00;;;;;;;17.06;78.43;100990.42;2566227;91;21501;-87
2022/09/21 12:17:59;;;;;;;2.58;1.15;;;;;;;17.30;77.02;100998.39;2542536;89;21068;-87
2022/09/21 12:22:28;;;;;;;2.17;1.30;;;;;;;17.57;75.89;100985.86;2630449;88;21574;-85
2022/09/21 12:26:43;;;;;;;1.62;1.32;;;;;;;17.63;77.09;100985.26;2720130;84;21025;-87
2022/09/21 12:30:49;;;;;;;1.60;1.42;;;;;;;17.72;73.99;100986.17;2754554;86;21502;-87
2022/09/21 12:34:55;;;;;;;1.02;0.95;;;;;;;17.89;75.66;100981.75;2754077;86;20986;-86
2022/09/21 12:39:18;;;;;;;;;;;;;;;17.93;69.79;100976.39;2735248;85;21639;-84
2022/09/21 12:43:40;;;;;;;1.20;1.10;;;;;;;18.09;69.21;100976.20;2754359;85;20617;-86
2022/09/21 12:48:12;;;;;;;1.40;0.88;;;;;;;18.01;72.34;100968.87;2753588;85;21045;-87
2022/09/21 12:52:24;;;;;;;2.62;2.30;;;;;;;17.77;73.78;100965.02;2804490;83;20995;-85
2022/09/21 12:56:36;;;;;;;0.85;0.65;;;;;;;17.59;71.44;100980.34;2783189;84;21417;-87
2022/09/21 13:00:54;;;;;;;3.67;1.27;;;;;;;17.35;72.69;100985.33;2793424;83;21030;-87
2022/09/21 13:05:34;;;;;;;2.42;0.78;;;;;;;16.88;80.70;101021.23;2817097;83;21460;-87
2022/09/21 13:09:40;;;;;;;2.90;0.53;;;;;;;16.28;77.62;101008.56;2787586;83;21543;-87
2022/09/21 13:13:59;;;;;;;1.27;0.70;;;;;;;15.84;75.59;100989.41;2811096;84;21478;-86
2022/09/21 13:18:20;;;;;;;0.30;0.28;;;;;;;15.59;78.22;100997.03;2810426;83;21057;-87
2022/09/21 13:22:24;;;;;;;0.75;0.75;;;;;;;15.46;80.06;100987.11;2804678;83;21078;-86
2022/09/21 13:26:42;;;;;;;0.47;0.47;;;;;;;15.41;81.41;100985.67;2799558;83;21029;-86
2022/09/21 13:31:17;;;;;;;0.80;0.78;;;;;;;15.41;82.14;100986.17;2789748;84;21022;-86
2022/09/21 13:36:00;;;;;;;2.08;0.98;;;;;;;15.39;86.57;100984.13;2726134;85;21064;-81
2022/09/21 13:40:08;;;;;;;1.17;1.05;;;;;;;15.36;90.90;100985.77;2808149;83;21058;-87
2022/09/21 13:44:21;;;;;;;3.22;1.27;;;;;;;15.31;92.46;100978.61;2793147;83;21068;-87
2022/09/21 13:48:28;;;;;;;0.82;0.70;;;;;;;15.35;91.93;100978.70;2812405;83;21014;-85
2022/09/21 13:52:39;;;;;;;3.02;2.17;;;;;;;15.30;90.37;100976.44;2783810;83;21295;-86
2022/09/21 13:56:41;;;;;;;1.60;0.98;;;;;;;15.33;91.48;100968.11;2803257;83;21054;-86
2022/09/21 14:00:57;;;;;;;0.78;0.78;;;;;;;15.47;94.48;100969.52;2736389;83;21542;-87
2022/09/21 14:05:24;;;;;;;2.22;1.32;;;;;;;15.75;93.42;100965.64;2812891;83;21078;-87
2022/09/21 14:09:41;;;;;;;5.75;2.08;;;;;;;16.09;91.72;100962.47;2787791;83;21490;-85
2022/09/21 14:14:00;;;;;;;1.07;1.05;;;;;;;16.23;87.51;100963.00;2780441;83;21030;-85
2022/09/21 14:18:16;;;;;;;1.02;0.93;;;;;;;16.12;84.87;100954.16;2785143;83;21019;-85
2022/09/21 14:22:26;;;;;;;1.27;0.85;;;;;;;15.94;85.07;100958.07;2806977;83;21078;-85
2022/09/21 14:27:03;;;;;;;2.33;0.88;;;;;;;15.76;83.37;100955.73;2799099;83;21026;-82
2022/09/21 14:31:10;;;;;;;2.33;1.57;;;;;;;15.63;83.73;100962.27;2812332;83;21013;-86
2022/09/21 14:35:23;;;;;;;0.50;0.40;;;;;;;15.39;85.70;100972.91;2794897;83;21065;-84
2022/09/21 14:39:34;;;;;;;1.32;0.72;;;;;;;15.21;86.29;100966.06;2819484;83;21010;-85
2022/09/21 14:43:38;;;;;;;1.35;1.00;;;;;;;15.06;86.55;100966.97;2814843;83;21014;-84
2022/09/21 14:48:06;;;;;;;2.22;0.95;;;;;;;14.85;86.77;100952.32;2821297;83;21033;-85
2022/09/21 14:52:19;;;;;;;0.78;0.65;;;;;;;14.77;86.59;100945.48;2816731;83;21015;-85
2022/09/21 14:56:29;;;;;;;0.72;0.62;;;;;;;14.64;86.59;100950.55;2800530;83;21006;-85
2022/09/21 15:00:43;;;;;;;2.35;0.30;;;;;;;14.64;90.68;100955.91;2815635;83;20999;-86
2022/09/21 15:05:20;;;;;;;2.95;1.40;;;;;;;14.61;88.48;100952.64;2808908;82;21024;-84
2022/09/21 15:14:34;;;;;;;2.75;1.15;;;;;;;14.41;85.62;100947.22;2790273;83;20999;-85
2022/09/21 15:18:40;;;;;;;1.60;1.05;;;;;;;14.30;86.46;100949.50;2792252;83;21030;-84
2022/09/21 15:22:42;;;;;;;1.00;0.82;;;;;;;14.27;87.75;100953.78;2822233;83;21022;-85
2022/09/21 15:26:45;;;;;;;2.67;1.37;;;;;;;14.21;90.58;100947.12;2747948;84;21084;-83
2022/09/21 15:30:47;;;;;;;3.45;1.98;;;;;;;14.16;92.75;100947.20;2828757;82;21039;-84
2022/09/21 15:35:00;;;;;;;1.72;1.20;;;;;;;14.19;93.37;100952.28;2830106;82;21041;-85
2022/09/21 15:38:59;;;;;;;3.58;2.15;;;;;;;14.27;93.01;100955.12;2806164;82;21076;-84
2022/09/21 15:43:09;;;;;;;3.47;2.77;;;;;;;14.19;93.97;100957.62;2808978;82;20998;-84
2022/09/21 15:47:12;;;;;;;5.08;3.98;;;;;;;14.12;96.03;100963.99;2793950;83;21012;-83
2022/09/21 15:51:28;;;;;;;2.83;2.33;;;;;;;14.05;95.76;100962.33;2846967;82;21002;-84
2022/09/21 15:55:30;;;;;;;1.70;1.60;;;;;;;14.00;98.61;100961.89;2832713;82;21001;-84
2022/09/21 15:59:32;;;;;;;2.50;1.40;;;;;;;13.95;99.48;100955.59;2832050;82;21061;-84
2022/09/21 16:03:33;;;;;;;2.80;1.75;;;;;;;13.95;99.45;100962.27;2812542;83;21058;-89
2022/09/21 16:07:37;;;;;;;2.62;2.42;;;;;;;13.95;94.99;100965.42;2841573;82;21505;-87
2022/09/21 16:11:38;;;;;;;1.95;0.93;;;;;;;13.82;93.96;100965.63;2812335;83;21502;-89
2022/09/21 16:15:40;;;;;;;1.05;0.95;;;;;;;13.78;93.45;100969.55;2835566;82;21037;-89
2022/09/21 16:19:52;;;;;;;1.20;1.10;;;;;;;13.66;93.37;100976.78;2846311;82;20978;-88
2022/09/21 16:24:18;;;;;;;4.22;2.30;;;;;;;13.56;93.51;100985.59;2828764;82;21629;-89
2022/09/21 16:28:28;;;;;;;2.67;2.17;;;;;;;13.49;94.04;100983.55;2779592;83;21033;-88
2022/09/21 16:32:32;;;;;;;4.45;2.12;;;;;;;13.41;95.55;100993.00;2808613;82;21104;-90
2022/09/21 16:36:37;;;;;;;2.95;1.80;;;;;;;13.28;99.10;100983.82;2832478;82;21474;-88
2022/09/21 16:40:39;;;;;;;6.95;1.85;;;;;;;13.09;96.99;100987.64;2798445;83;21025;-88
2022/09/21 16:44:43;;;;;;;4.15;3.02;;;;;;;12.97;99.13;100984.14;2795813;82;21772;-90
2022/09/21 16:48:44;;;;;;;3.17;2.00;;;;;;;12.84;100.00;100989.63;2829272;82;21513;-88
2022/09/21 16:52:51;;;;;;;2.05;1.75;;;;;;;12.67;100.00;100987.83;2812450;82;20978;-89
2022/09/21 16:56:48;;;;;;;2.30;1.30;;;;;;;12.62;100.00;100994.02;2785797;84;21006;-89
2022/09/21 17:00:53;;;;;;;1.90;1.35;;;;;;;12.44;100.00;100990.97;2803614;83;21038;-89
2022/09/21 17:04:54;;;;;;;2.92;2.27;;;;;;;12.37;100.00;100994.59;2815171;83;21057;-89
2022/09/21 17:08:56;;;;;;;5.37;2.00;;;;;;;12.49;100.00;100993.28;2795511;83;21065;-88
2022/09/21 17:12:58;;;;;;;2.80;1.65;;;;;;;12.57;100.00;100994.38;2774043;83;21062;-89
2022/09/21 17:17:02;;;;;;;4.33;2.17;;;;;;;12.56;100.00;100996.69;2799172;83;20998;-89
2022/09/21 17:21:04;;;;;;;4.28;3.00;;;;;;;12.45;100.00;100999.84;2807825;83;20987;-89
2022/09/21 17:25:07;;;;;;;2.77;2.08;;;;;;;12.41;100.00;100996.55;2819736;83;21042;-88
2022/09/21 17:29:25;;;;;;;5.37;2.65;;;;;;;12.32;100.00;101004.79;2798451;83;21463;-88
2022/09/21 17:33:25;;;;;;;3.90;3.42;;;;;;;12.16;100.00;101006.95;2806415;82;21080;-89
2022/09/21 17:37:26;;;;;;;4.65;3.05;;;;;;;12.07;100.00;101012.03;2824391;82;21045;-88
2022/09/21 17:41:58;;;;;;;6.65;4.33;;;;;;;11.93;100.00;101008.20;2798796;83;21043;-88
2022/09/21 17:46:22;;;;;;;3.77;2.45;;;;;;;11.73;100.00;101017.72;2826530;82;21073;-87
2022/09/21 17:54:38;;;;;;;6.53;3.72;;;;;;;11.62;100.00;101021.19;2954949;79;22197;-85
2022/09/21 17:58:57;;;;;;;4.72;3.70;;;;;;;11.54;100.00;101019.93;2904078;80;21023;-88
2022/09/21 18:02:59;;;;;;;6.00;3.47;;;;;;;11.55;100.00;101025.62;2904801;80;21027;-86
2022/09/21 18:07:02;;;;;;;2.87;2.60;;;;;;;11.62;100.00;101011.87;2899214;80;20983;-88
2022/09/21 18:11:15;;;;;;;5.62;3.27;;;;;;;11.60;100.00;101019.96;2904885;81;21063;-88
2022/09/21 18:15:35;;;;;;;6.28;3.52;;;;;;;11.40;100.00;101026.28;2908795;81;21677;-85
2022/09/21 18:20:11;;;;;;;5.97;4.15;;;;;;;11.34;100.00;101034.73;2877050;80;21008;-87
2022/09/21 18:24:23;;;;;;;11.12;5.30;;;;;;;11.34;100.00;101032.54;2879988;81;20987;-85
2022/09/21 18:28:49;;;;;;;7.15;4.97;;;;;;;11.37;100.00;101035.84;2900980;80;21007;-88
2022/09/21 18:33:10;;;;;;;12.63;6.22;;;;;;;11.42;100.00;101034.17;2904971;81;21004;-88
2022/09/21 18:37:38;;;;;;;10.03;5.53;;;;;;;11.38;100.00;101038.00;2897214;81;21011;-87
2022/09/21 18:42:38;;;;;;;6.45;4.37;;;;;;;11.48;100.00;101033.72;2900049;81;21003;-87
2022/09/21 18:46:59;;;;;;;7.62;6.78;;;;;;;11.54;100.00;101035.08;2886576;81;21117;-88
2022/09/21 18:51:18;;;;;;;5.17;4.58;;;;;;;11.44;100.00;101037.58;2887240;80;21163;-87
2022/09/21 18:55:26;;;;;;;8.13;5.90;;;;;;;11.46;100.00;101043.64;2906984;80;20979;-88
2022/09/21 18:59:28;;;;;;;7.15;5.80;;;;;;;11.46;100.00;101050.77;2889137;80;20994;-87
2022/09/21 19:03:30;;;;;;;9.75;6.62;;;;;;;11.55;100.00;101056.27;2910866;81;21732;-88
2022/09/21 19:07:40;;;;;;;11.08;6.33;;;;;;;11.48;100.00;101049.70;2911072;80;20990;-88
2022/09/21 19:12:14;;;;;;;9.30;6.42;;;;;;;11.58;100.00;101052.03;2907011;80;21557;-87
2022/09/21 19:16:32;;;;;;;9.23;7.58;;;;;;;11.60;100.00;101057.27;2882447;81;21061;-88
2022/09/21 19:21:01;;;;;;;10.60;6.87;;;;;;;11.64;100.00;101056.56;2911049;80;20958;-87
2022/09/21 19:25:11;;;;;;;12.00;7.20;;;;;;;11.68;100.00;101060.70;2902278;81;21010;-89
2022/09/21 19:29:39;;;;;;;10.30;6.50;;;;;;;11.73;100.00;101059.03;2883568;80;21006;-88